createdAt,value
2019-04-07T00:00:10.910Z,3.3
2019-04-07T00:03:11.686Z,3.3
2019-04-07T00:06:11.246Z,3.3
2019-04-07T00:09:11.087Z,3.3
2019-04-07T00:12:11.402Z,3.3
2019-04-07T00:15:11.632Z,3.3
2019-04-07T00:18:11.014Z,3.3
2019-04-07T00:21:11.586Z,3.3
2019-04-07T00:24:11.811Z,3.3
2019-04-07T00:27:10.962Z,3.3
2019-04-07T00:30:11.128Z,3.3
2019-04-07T00:33:11.645Z,3.3
2019-04-07T00:36:10.846Z,3.3
2019-04-07T00:39:11.724Z,3.3
2019-04-07T00:42:12.275Z,3.3
2019-04-07T00:45:11.034Z,3.3
2019-04-07T00:48:11.007Z,3.3
2019-04-07T00:51:11.483Z,3.3
2019-04-07T00:54:11.657Z,3.3
2019-04-07T00:57:11.234Z,3.3
2019-04-07T01:00:11.635Z,3.3
2019-04-07T01:03:12.537Z,3.3
2019-04-07T01:06:11.787Z,3.3
2019-04-07T01:09:11.170Z,3.3
2019-04-07T01:12:11.112Z,3.3
2019-04-07T01:15:12.588Z,3.3
2019-04-07T01:18:10.911Z,3.3
2019-04-07T01:21:11.162Z,3.3
2019-04-07T01:24:11.011Z,3.3
2019-04-07T01:27:12.431Z,3.3
2019-04-07T01:30:10.861Z,3.3
2019-04-07T01:33:10.862Z,3.3
2019-04-07T01:36:11.593Z,3.3
2019-04-07T01:39:11.016Z,3.3
2019-04-07T01:42:11.785Z,3.3
2019-04-07T01:45:11.752Z,3.3
2019-04-07T01:48:11.788Z,3.3
2019-04-07T01:51:11.070Z,3.3
2019-04-07T01:54:10.884Z,3.3
2019-04-07T01:57:10.928Z,3.3
2019-04-07T02:00:11.485Z,3.4
2019-04-07T02:03:12.231Z,3.4
2019-04-07T02:06:10.824Z,3.4
2019-04-07T02:09:11.451Z,3.4
2019-04-07T02:12:12.072Z,3.4
2019-04-07T02:15:11.605Z,3.4
2019-04-07T02:18:12.267Z,3.4
2019-04-07T02:21:11.324Z,3.4
2019-04-07T02:24:13.252Z,3.4
2019-04-07T02:27:10.794Z,3.4
2019-04-07T02:30:14.592Z,3.4
2019-04-07T02:33:11.223Z,3.4
2019-04-07T02:36:32.264Z,3.4
2019-04-07T02:39:11.535Z,3.4
2019-04-07T02:42:11.496Z,3.4
2019-04-07T02:45:11.409Z,3.4
2019-04-07T02:48:11.101Z,3.4
2019-04-07T02:51:11.426Z,3.4
2019-04-07T02:54:11.052Z,3.4
2019-04-07T02:57:11.016Z,3.4
2019-04-07T03:00:12.409Z,3.4
2019-04-07T03:03:11.245Z,3.4
2019-04-07T03:09:11.335Z,3.4
2019-04-07T03:12:10.940Z,3.4
2019-04-07T03:15:11.675Z,3.4
2019-04-07T03:18:11.833Z,3.4
2019-04-07T03:21:13.415Z,3.4
2019-04-07T03:24:12.845Z,3.4
2019-04-07T03:27:11.188Z,3.4
2019-04-07T03:30:18.373Z,3.4
2019-04-07T03:33:46.325Z,3.4
2019-04-07T03:39:11.421Z,3.4
2019-04-07T03:42:11.106Z,3.4
2019-04-07T03:45:11.640Z,3.4
2019-04-07T03:48:11.142Z,3.4
2019-04-07T03:51:11.390Z,3.4
2019-04-07T03:54:12.346Z,3.4
2019-04-07T03:57:11.628Z,3.4
2019-04-07T04:00:10.974Z,3.5
2019-04-07T04:03:11.323Z,3.5
2019-04-07T04:06:14.159Z,3.5
2019-04-07T04:09:11.718Z,3.5
2019-04-07T04:12:12.085Z,3.5
2019-04-07T04:15:11.124Z,3.5
2019-04-07T04:18:12.288Z,3.5
2019-04-07T04:21:11.576Z,3.5
2019-04-07T04:24:10.926Z,3.5
2019-04-07T04:27:11.313Z,3.5
2019-04-07T04:30:13.794Z,3.5
2019-04-07T04:33:11.100Z,3.5
2019-04-07T04:36:10.902Z,3.5
2019-04-07T04:39:10.892Z,3.5
2019-04-07T04:42:11.842Z,3.5
2019-04-07T04:45:11.037Z,3.5
2019-04-07T04:48:12.304Z,3.5
2019-04-07T04:51:13.487Z,3.5
2019-04-07T04:54:12.825Z,3.5
2019-04-07T04:57:11.650Z,3.5
2019-04-07T05:00:11.065Z,3.7
2019-04-07T05:03:11.199Z,3.7
2019-04-07T05:06:12.182Z,3.7
2019-04-07T05:09:11.085Z,3.7
2019-04-07T05:12:10.792Z,3.7
2019-04-07T05:15:11.111Z,3.7
2019-04-07T05:18:11.140Z,3.7
2019-04-07T05:21:10.936Z,3.7
2019-04-07T05:24:11.975Z,3.7
2019-04-07T05:27:11.714Z,3.7
2019-04-07T05:30:11.538Z,3.7
2019-04-07T05:33:11.335Z,3.7
2019-04-07T05:36:10.963Z,3.7
2019-04-07T05:39:10.930Z,3.7
2019-04-07T05:42:11.128Z,3.7
2019-04-07T05:45:12.656Z,3.7
2019-04-07T05:48:11.164Z,3.7
2019-04-07T05:51:10.834Z,3.7
2019-04-07T05:54:20.981Z,3.7
2019-04-07T05:57:10.990Z,3.7
2019-04-07T06:00:17.250Z,4.1
2019-04-07T06:03:12.561Z,4.1
2019-04-07T06:06:11.801Z,4.1
2019-04-07T06:09:11.519Z,4.1
2019-04-07T06:12:12.903Z,4.1
2019-04-07T06:15:12.050Z,4.1
2019-04-07T06:18:12.757Z,4.1
2019-04-07T06:21:17.592Z,4.1
2019-04-07T06:24:12.384Z,4.1
2019-04-07T06:27:19.062Z,4.1
2019-04-07T06:30:12.044Z,4.1
2019-04-07T06:33:12.242Z,4.1
2019-04-07T06:36:13.318Z,4.1
2019-04-07T06:39:11.295Z,4.1
2019-04-07T06:42:11.194Z,4.1
2019-04-07T06:45:13.112Z,4.1
2019-04-07T06:48:11.792Z,4.1
2019-04-07T06:51:11.081Z,4.1
2019-04-07T06:54:12.400Z,4.1
2019-04-07T06:57:12.485Z,4.1
2019-04-07T07:00:11.364Z,4.3
2019-04-07T07:03:11.861Z,4.3
2019-04-07T07:06:17.266Z,4.3
2019-04-07T07:09:16.847Z,4.3
2019-04-07T07:12:42.345Z,4.3
2019-04-07T07:15:12.127Z,4.3
2019-04-07T07:18:11.779Z,4.3
2019-04-07T07:21:12.230Z,4.3
2019-04-07T07:24:27.780Z,4.3
2019-04-07T07:27:12.630Z,4.3
2019-04-07T07:30:10.940Z,4.3
2019-04-07T07:33:11.509Z,4.3
2019-04-07T07:36:11.032Z,4.3
2019-04-07T07:39:14.893Z,4.3
2019-04-07T07:42:12.455Z,4.3
2019-04-07T07:45:14.370Z,4.3
2019-04-07T07:48:11.394Z,4.3
2019-04-07T07:51:16.714Z,4.3
2019-04-07T07:54:18.375Z,4.3
2019-04-07T07:57:12.137Z,4.3
2019-04-07T08:00:11.806Z,4.4
2019-04-07T08:03:10.849Z,4.4
2019-04-07T08:06:12.190Z,4.4
2019-04-07T08:09:28.409Z,4.4
2019-04-07T08:12:12.861Z,4.4
2019-04-07T08:15:11.760Z,4.4
2019-04-07T08:18:12.884Z,4.4
2019-04-07T08:21:20.975Z,4.4
2019-04-07T08:24:19.493Z,4.4
2019-04-07T08:27:11.802Z,4.4
2019-04-07T08:30:14.249Z,4.4
2019-04-07T08:33:11.064Z,4.4
2019-04-07T08:36:15.283Z,4.4
2019-04-07T08:39:39.751Z,4.4
2019-04-07T08:42:21.015Z,4.4
2019-04-07T08:45:11.862Z,4.4
2019-04-07T08:48:11.225Z,4.4
2019-04-07T08:51:11.739Z,4.4
2019-04-07T08:54:18.695Z,4.4
2019-04-07T08:57:11.036Z,4.4
2019-04-07T09:00:18.616Z,4.5
2019-04-07T09:03:18.245Z,4.5
2019-04-07T09:06:11.254Z,4.5
2019-04-07T09:09:12.474Z,4.5
2019-04-07T09:12:11.720Z,4.5
2019-04-07T09:15:13.438Z,4.5
2019-04-07T09:18:19.408Z,4.5
2019-04-07T09:21:51.412Z,4.5
2019-04-07T09:24:12.820Z,4.5
2019-04-07T09:27:27.178Z,4.5
2019-04-07T09:30:11.511Z,4.5
2019-04-07T09:33:12.709Z,4.5
2019-04-07T09:36:12.293Z,4.5
2019-04-07T09:39:14.274Z,4.5
2019-04-07T09:42:10.903Z,4.5
2019-04-07T09:45:14.040Z,4.5
2019-04-07T09:48:10.863Z,4.5
2019-04-07T09:51:11.450Z,4.5
2019-04-07T09:54:14.233Z,4.5
2019-04-07T09:57:11.957Z,4.5
2019-04-07T10:00:14.749Z,4.5
2019-04-07T10:03:16.856Z,4.5
2019-04-07T10:06:10.954Z,4.5
2019-04-07T10:09:11.924Z,4.5
2019-04-07T10:12:10.697Z,4.5
2019-04-07T10:15:14.168Z,4.5
2019-04-07T10:18:10.935Z,4.5
2019-04-07T10:21:11.565Z,4.5
2019-04-07T10:24:10.794Z,4.5
2019-04-07T10:27:11.202Z,4.5
2019-04-07T10:30:11.365Z,4.5
2019-04-07T10:33:10.781Z,4.5
2019-04-07T10:36:11.600Z,4.5
2019-04-07T10:39:10.706Z,4.5
2019-04-07T10:42:12.629Z,4.5
2019-04-07T10:45:12.254Z,4.5
2019-04-07T10:48:11.976Z,4.5
2019-04-07T10:51:10.956Z,4.5
2019-04-07T10:54:10.744Z,4.5
2019-04-07T10:57:12.495Z,4.5
2019-04-07T11:00:11.355Z,4.6
2019-04-07T11:03:13.226Z,4.6
2019-04-07T11:06:13.631Z,4.6
2019-04-07T11:09:11.513Z,4.6
2019-04-07T11:12:11.447Z,4.6
2019-04-07T11:15:10.941Z,4.6
2019-04-07T11:18:10.833Z,4.6
2019-04-07T11:21:13.171Z,4.6
2019-04-07T11:24:10.893Z,4.6
2019-04-07T11:27:12.473Z,4.6
2019-04-07T11:30:11.757Z,4.6
2019-04-07T11:33:12.147Z,4.6
2019-04-07T11:36:11.112Z,4.6
2019-04-07T11:39:12.240Z,4.6
2019-04-07T11:42:11.952Z,4.6
2019-04-07T11:45:11.575Z,4.6
2019-04-07T11:48:10.723Z,4.6
2019-04-07T11:51:10.936Z,4.6
2019-04-07T11:54:10.799Z,4.6
2019-04-07T11:57:12.062Z,4.6
2019-04-07T12:00:12.603Z,4.6
2019-04-07T12:03:12.270Z,4.6
2019-04-07T12:06:25.684Z,4.6
2019-04-07T12:09:13.504Z,4.6
2019-04-07T12:12:13.779Z,4.6
2019-04-07T12:15:10.945Z,4.6
2019-04-07T12:18:20.496Z,4.6
2019-04-07T12:21:27.968Z,4.6
2019-04-07T12:24:10.946Z,4.6
2019-04-07T12:27:13.915Z,4.6
2019-04-07T12:30:10.773Z,4.6
2019-04-07T12:33:13.714Z,4.6
2019-04-07T12:36:10.706Z,4.6
2019-04-07T12:39:20.094Z,4.6
2019-04-07T12:42:14.706Z,4.6
2019-04-07T12:45:14.627Z,4.6
2019-04-07T12:48:11.892Z,4.6
2019-04-07T12:51:10.652Z,4.6
2019-04-07T12:54:12.062Z,4.6
2019-04-07T12:57:10.874Z,4.6
2019-04-07T13:00:15.811Z,4.7
2019-04-07T13:03:13.062Z,4.7
2019-04-07T13:06:11.129Z,4.7
2019-04-07T13:09:11.794Z,4.7
2019-04-07T13:12:10.747Z,4.7
2019-04-07T13:15:16.076Z,4.7
2019-04-07T13:18:13.847Z,4.7
2019-04-07T13:21:10.820Z,4.7
2019-04-07T13:24:49.065Z,4.7
2019-04-07T13:27:14.319Z,4.7
2019-04-07T13:30:14.282Z,4.7
2019-04-07T13:33:11.646Z,4.7
2019-04-07T13:36:10.843Z,4.7
2019-04-07T13:39:10.995Z,4.7
2019-04-07T13:42:10.687Z,4.7
2019-04-07T13:45:18.133Z,4.7
2019-04-07T13:48:21.092Z,4.7
2019-04-07T13:51:11.386Z,4.7
2019-04-07T13:54:13.340Z,4.7
2019-04-07T13:57:11.884Z,4.7
2019-04-07T14:00:17.492Z,4.8
2019-04-07T15:02:23.059Z,6.2
2019-04-07T15:05:26.078Z,6.2
2019-04-07T15:08:21.855Z,6.2
2019-04-07T15:11:20.841Z,6.2
2019-04-07T15:14:21.593Z,6.2
2019-04-07T15:17:24.378Z,6.2
2019-04-07T15:20:21.101Z,6.2
2019-04-07T15:23:21.890Z,6.2
2019-04-07T15:26:22.370Z,6.2
2019-04-07T15:29:25.389Z,6.2
2019-04-07T15:32:31.495Z,6.2
2019-04-07T15:35:21.561Z,6.2
2019-04-07T15:38:28.764Z,6.2
2019-04-07T15:41:20.958Z,6.2
2019-04-07T15:44:21.097Z,6.2
2019-04-07T15:47:22.614Z,6.2
2019-04-07T15:50:22.914Z,6.2
2019-04-07T15:53:22.332Z,6.2
2019-04-07T15:56:21.274Z,6.2
2019-04-07T15:59:20.928Z,6.2
2019-04-07T16:02:20.940Z,6
2019-04-07T16:05:22.926Z,6
2019-04-07T16:08:20.668Z,6
2019-04-07T16:11:30.842Z,6
2019-04-07T16:14:26.083Z,6
2019-04-07T16:17:21.359Z,6
2019-04-07T16:20:41.750Z,6
2019-04-07T16:23:22.473Z,6
2019-04-07T16:26:20.718Z,6
2019-04-07T16:29:21.484Z,6
2019-04-07T16:32:20.891Z,6
2019-04-07T16:35:20.950Z,6
2019-04-07T16:38:20.970Z,6
2019-04-07T16:41:22.449Z,6
2019-04-07T16:44:21.444Z,6
2019-04-07T16:47:38.418Z,6
2019-04-07T16:50:21.798Z,6
2019-04-07T16:53:20.900Z,6
2019-04-07T16:56:23.704Z,6
2019-04-07T16:59:22.267Z,6
2019-04-07T17:02:20.710Z,5.3
2019-04-07T17:05:26.206Z,5.3
2019-04-07T17:08:30.234Z,5.3
2019-04-07T17:11:20.893Z,5.3
2019-04-07T17:14:20.925Z,5.3
2019-04-07T17:17:23.437Z,5.3
2019-04-07T17:20:20.674Z,5.3
2019-04-07T17:23:24.548Z,5.3
2019-04-07T17:26:24.746Z,5.3
2019-04-07T17:29:30.124Z,5.3
2019-04-07T17:32:20.825Z,5.3
2019-04-07T18:00:30.450Z,3.5
2019-04-07T18:03:31.858Z,3.5
2019-04-07T18:06:34.625Z,3.5
2019-04-07T18:09:31.204Z,3.5
2019-04-07T18:12:31.957Z,3.5
2019-04-07T18:15:29.769Z,3.5
2019-04-07T18:18:31.822Z,3.5
2019-04-07T18:21:31.695Z,3.5
2019-04-07T18:24:32.073Z,3.5
2019-04-07T18:27:30.810Z,3.5
2019-04-07T18:30:37.204Z,3.5
2019-04-07T18:33:29.669Z,3.5
2019-04-07T18:36:29.793Z,3.5
2019-04-07T18:39:29.983Z,3.5
2019-04-07T18:42:29.687Z,3.5
2019-04-07T18:45:29.575Z,3.5
2019-04-07T18:48:29.667Z,3.5
2019-04-07T18:51:29.682Z,3.5
2019-04-07T18:54:33.816Z,3.5
2019-04-07T18:57:31.925Z,3.5
2019-04-07T19:00:32.799Z,3.2
2019-04-07T19:03:30.114Z,3.2
2019-04-07T19:06:31.513Z,3.2
2019-04-07T19:09:35.494Z,3.2
2019-04-07T19:12:30.683Z,3.2
2019-04-07T19:15:30.945Z,3.2
2019-04-07T19:18:29.684Z,3.2
2019-04-07T19:21:29.667Z,3.2
2019-04-07T19:24:36.177Z,3.2
2019-04-07T19:27:31.787Z,3.2
2019-04-07T19:30:29.793Z,3.2
2019-04-07T19:33:29.786Z,3.2
2019-04-07T19:36:30.773Z,3.2
2019-04-07T19:39:30.955Z,3.2
2019-04-07T19:42:29.925Z,3.2
2019-04-07T19:45:29.949Z,3.2
2019-04-07T19:48:29.419Z,3.2
2019-04-07T19:51:32.255Z,3.2
2019-04-07T19:54:29.778Z,3.2
2019-04-07T19:57:30.289Z,3.2
2019-04-07T20:00:30.681Z,3.3
2019-04-07T20:03:29.684Z,3.3
2019-04-07T20:06:30.145Z,3.3
2019-04-07T20:09:30.389Z,3.3
2019-04-07T20:12:46.859Z,3.3
2019-04-07T20:15:43.292Z,3.3
2019-04-07T20:18:30.396Z,3.3
2019-04-07T20:21:58.259Z,3.3
2019-04-07T20:24:38.664Z,3.3
2019-04-07T20:27:30.083Z,3.3
2019-04-07T20:30:31.142Z,3.3
2019-04-07T20:33:34.792Z,3.3
2019-04-07T20:36:29.855Z,3.3
2019-04-07T20:39:37.168Z,3.3
2019-04-07T20:42:29.732Z,3.3
2019-04-07T20:45:29.749Z,3.3
2019-04-07T20:48:38.373Z,3.3
2019-04-07T20:51:29.930Z,3.3
2019-04-07T20:54:36.096Z,3.3
2019-04-07T20:57:29.739Z,3.3
2019-04-07T21:00:29.376Z,3.2
2019-04-07T21:03:29.737Z,3.2
2019-04-07T21:06:31.809Z,3.2
2019-04-07T21:09:36.283Z,3.2
2019-04-07T21:12:33.753Z,3.2
2019-04-07T21:15:31.463Z,3.2
2019-04-07T21:18:34.232Z,3.2
2019-04-07T21:21:35.148Z,3.2
2019-04-07T21:24:31.815Z,3.2
2019-04-07T21:27:38.869Z,3.2
2019-04-07T21:30:29.652Z,3.2
2019-04-07T21:33:29.698Z,3.2
2019-04-07T21:36:30.380Z,3.2
2019-04-07T21:39:34.711Z,3.2
2019-04-07T21:42:32.124Z,3.2
2019-04-07T21:45:55.806Z,3.2
2019-04-07T21:48:32.363Z,3.2
2019-04-07T21:51:29.607Z,3.2
2019-04-07T21:54:39.449Z,3.2
2019-04-07T21:57:29.655Z,3.2
2019-04-07T22:00:33.312Z,3.1
2019-04-07T22:03:29.809Z,3.1
2019-04-07T22:06:32.419Z,3.1
2019-04-07T22:09:30.630Z,3.1
2019-04-07T22:12:32.148Z,3.1
2019-04-07T22:18:29.869Z,3.1
2019-04-07T22:21:29.787Z,3.1
2019-04-07T22:24:39.854Z,3.1
2019-04-07T22:27:30.841Z,3.1
2019-04-07T22:30:30.857Z,3.1
2019-04-07T22:33:35.262Z,3.1
2019-04-07T22:36:29.706Z,3.1
2019-04-07T22:39:33.513Z,3.1
2019-04-07T22:42:29.555Z,3.1
2019-04-07T22:45:32.687Z,3.1
2019-04-07T22:48:30.787Z,3.1
2019-04-07T22:51:29.524Z,3.1
2019-04-07T22:54:32.953Z,3.1
2019-04-07T22:57:29.773Z,3.1
2019-04-07T23:00:29.712Z,3
2019-04-07T23:03:29.663Z,3
2019-04-07T23:06:29.545Z,3
2019-04-07T23:09:31.480Z,3
2019-04-07T23:12:29.629Z,3
2019-04-07T23:15:48.854Z,3
2019-04-07T23:18:30.102Z,3
2019-04-07T23:21:30.306Z,3
2019-04-07T23:24:29.695Z,3
2019-04-07T23:27:30.031Z,3
2019-04-07T23:30:29.653Z,3
2019-04-07T23:33:30.131Z,3
2019-04-07T23:36:30.829Z,3
2019-04-07T23:39:29.727Z,3
2019-04-07T23:42:30.622Z,3
2019-04-07T23:45:29.775Z,3
2019-04-07T23:48:30.923Z,3
2019-04-07T23:51:29.489Z,3
2019-04-07T23:54:29.508Z,3
2019-04-07T23:57:29.941Z,3
